createdAt,value
2019-05-19T00:01:40.652Z,6.93
2019-05-19T00:04:05.278Z,6.67
2019-05-19T00:06:29.860Z,6.20
2019-05-19T00:08:54.341Z,8.33
2019-05-19T00:11:18.853Z,8.20
2019-05-19T00:13:43.333Z,6.37
2019-05-19T00:16:07.862Z,6.67
2019-05-19T00:18:32.305Z,6.87
2019-05-19T00:20:56.756Z,6.77
2019-05-19T00:23:21.366Z,7.10
2019-05-19T00:25:46.649Z,7.03
2019-05-19T00:28:12.692Z,5.97
2019-05-19T00:30:37.159Z,6.57
2019-05-19T00:33:01.684Z,6.63
2019-05-19T00:35:26.172Z,7.23
2019-05-19T00:37:50.607Z,8.53
2019-05-19T00:40:15.163Z,7.03
2019-05-19T00:42:39.687Z,7.00
2019-05-19T00:45:09.061Z,6.97
2019-05-19T00:47:33.496Z,6.93
2019-05-19T00:49:58.097Z,7.00
2019-05-19T00:52:22.609Z,7.67
2019-05-19T00:54:47.080Z,6.93
2019-05-19T00:57:12.021Z,7.73
2019-05-19T00:59:37.514Z,7.20
2019-05-19T01:02:01.957Z,8.37
2019-05-19T01:04:26.488Z,7.70
2019-05-19T01:06:50.926Z,7.37
2019-05-19T01:09:15.464Z,8.30
2019-05-19T01:11:39.942Z,8.43
2019-05-19T01:14:04.854Z,7.93
2019-05-19T01:16:29.405Z,7.97
2019-05-19T01:18:53.849Z,7.43
2019-05-19T01:21:18.518Z,7.27
2019-05-19T01:23:43.088Z,7.33
2019-05-19T01:26:07.709Z,7.10
2019-05-19T01:28:32.155Z,7.47
2019-05-19T01:30:56.773Z,7.27
2019-05-19T01:33:21.207Z,7.33
2019-05-19T01:35:45.717Z,8.50
2019-05-19T01:38:10.240Z,8.00
2019-05-19T01:40:34.695Z,8.57
2019-05-19T01:42:59.213Z,8.80
2019-05-19T01:45:23.756Z,9.23
2019-05-19T01:47:48.211Z,8.03
2019-05-19T01:50:18.088Z,7.80
2019-05-19T01:52:39.457Z,7.83
2019-05-19T01:55:05.404Z,7.97
2019-05-19T01:57:29.917Z,8.00
2019-05-19T01:59:54.382Z,8.23
2019-05-19T02:02:18.860Z,7.90
2019-05-19T02:04:43.305Z,7.73
2019-05-19T02:07:07.838Z,7.33
2019-05-19T02:09:32.307Z,6.87
2019-05-19T02:11:56.762Z,7.13
2019-05-19T02:14:21.206Z,6.70
2019-05-19T02:16:45.675Z,6.53
2019-05-19T02:19:10.256Z,7.00
2019-05-19T02:21:34.720Z,7.07
2019-05-19T02:23:59.262Z,7.27
2019-05-19T02:26:23.719Z,7.20
2019-05-19T02:28:48.237Z,7.23
2019-05-19T02:31:12.760Z,7.07
2019-05-19T02:33:37.208Z,7.60
2019-05-19T02:36:01.729Z,7.40
2019-05-19T02:38:26.186Z,7.63
2019-05-19T02:40:53.709Z,7.17
2019-05-19T02:43:18.697Z,7.27
2019-05-19T02:45:44.116Z,7.90
2019-05-19T02:48:11.067Z,7.60
2019-05-19T02:50:51.777Z,7.80
2019-05-19T02:53:04.430Z,7.50
2019-05-19T02:55:30.807Z,8.23
2019-05-19T02:57:56.373Z,7.73
2019-05-19T03:00:23.866Z,7.70
2019-05-19T03:02:48.374Z,7.77
2019-05-19T03:05:13.439Z,8.70
2019-05-19T03:07:41.025Z,7.30
2019-05-19T03:10:06.988Z,7.67
2019-05-19T03:12:31.544Z,8.30
2019-05-19T03:14:56.063Z,7.00
2019-05-19T03:17:20.531Z,8.57
2019-05-19T03:19:44.970Z,9.30
2019-05-19T03:22:09.495Z,9.73
2019-05-19T03:24:33.933Z,9.30
2019-05-19T03:26:58.426Z,9.70
2019-05-19T03:29:24.526Z,8.90
2019-05-19T03:31:50.726Z,9.00
2019-05-19T03:34:15.304Z,9.10
2019-05-19T03:36:39.856Z,9.67
2019-05-19T03:39:06.444Z,8.77
2019-05-19T03:41:31.071Z,8.90
2019-05-19T03:43:55.530Z,8.40
2019-05-19T03:46:20.061Z,8.60
2019-05-19T03:48:44.493Z,9.77
2019-05-19T03:51:09.804Z,9.47
2019-05-19T03:53:34.267Z,9.00
2019-05-19T03:55:58.704Z,9.43
2019-05-19T03:58:23.172Z,9.40
2019-05-19T04:00:47.625Z,9.77
2019-05-19T04:03:12.086Z,9.30
2019-05-19T04:05:36.534Z,8.93
2019-05-19T04:08:00.999Z,9.47
2019-05-19T04:10:25.443Z,9.67
2019-05-19T04:12:49.996Z,9.60
2019-05-19T04:15:14.776Z,10.23
2019-05-19T04:17:39.342Z,10.37
2019-05-19T04:20:04.800Z,9.77
2019-05-19T04:22:29.355Z,10.83
2019-05-19T04:24:53.898Z,10.93
2019-05-19T04:27:18.456Z,10.53
2019-05-19T04:29:42.911Z,11.57
2019-05-19T04:32:07.426Z,11.50
2019-05-19T04:34:32.071Z,11.63
2019-05-19T04:36:56.552Z,12.07
2019-05-19T04:39:20.995Z,11.90
2019-05-19T04:41:45.480Z,10.93
2019-05-19T04:44:09.980Z,11.97
2019-05-19T04:46:34.411Z,11.13
2019-05-19T04:48:59.015Z,10.43
2019-05-19T04:51:23.470Z,12.10
2019-05-19T04:53:47.945Z,13.03
2019-05-19T04:56:12.385Z,13.47
2019-05-19T04:58:36.922Z,14.27
2019-05-19T05:01:01.356Z,14.57
2019-05-19T05:03:25.930Z,14.47
2019-05-19T05:05:50.672Z,14.83
2019-05-19T05:08:28.684Z,15.57
2019-05-19T05:10:41.426Z,16.30
2019-05-19T05:13:05.938Z,18.27
2019-05-19T05:15:30.531Z,18.57
2019-05-19T05:17:55.027Z,19.43
2019-05-19T05:20:19.616Z,19.37
2019-05-19T05:22:44.095Z,22.80
2019-05-19T05:25:09.318Z,21.93
2019-05-19T05:27:33.788Z,21.53
2019-05-19T05:29:58.294Z,21.77
2019-05-19T05:32:22.769Z,23.23
2019-05-19T05:34:47.363Z,22.17
2019-05-19T05:37:11.836Z,21.90
2019-05-19T05:39:36.300Z,23.37
2019-05-19T05:42:00.824Z,21.33
2019-05-19T05:44:25.290Z,21.30
2019-05-19T05:46:49.815Z,20.93
2019-05-19T05:49:14.308Z,22.23
2019-05-19T05:51:38.844Z,19.57
2019-05-19T05:54:03.381Z,21.00
2019-05-19T05:56:27.829Z,19.90
2019-05-19T05:58:52.322Z,20.43
2019-05-19T06:01:16.769Z,20.83
2019-05-19T06:03:41.322Z,18.17
2019-05-19T06:06:05.805Z,18.90
2019-05-19T06:08:30.348Z,17.60
2019-05-19T06:10:54.793Z,18.70
2019-05-19T06:13:19.451Z,17.13
2019-05-19T06:15:43.908Z,17.80
2019-05-19T06:18:08.465Z,16.67
2019-05-19T06:20:32.989Z,17.10
2019-05-19T06:22:57.893Z,16.23
2019-05-19T06:25:22.507Z,15.63
2019-05-19T06:27:47.011Z,15.13
2019-05-19T06:30:11.665Z,14.93
2019-05-19T06:32:46.767Z,14.30
2019-05-19T06:35:11.480Z,14.03
2019-05-19T06:37:35.950Z,15.47
2019-05-19T06:40:00.419Z,12.40
2019-05-19T06:42:24.877Z,12.73
2019-05-19T06:44:49.403Z,12.53
2019-05-19T06:47:13.848Z,13.27
2019-05-19T06:49:38.363Z,13.80
2019-05-19T06:52:02.821Z,14.17
2019-05-19T06:54:27.310Z,13.97
2019-05-19T06:56:51.760Z,14.37
2019-05-19T06:59:16.281Z,12.30
2019-05-19T07:01:40.753Z,9.53
2019-05-19T07:04:05.490Z,9.43
2019-05-19T07:06:30.014Z,8.47
2019-05-19T07:08:54.472Z,9.77
2019-05-19T07:11:18.941Z,9.93
2019-05-19T07:13:43.471Z,9.20
2019-05-19T07:16:07.906Z,9.57
2019-05-19T07:18:32.440Z,9.40
2019-05-19T07:20:56.877Z,8.20
2019-05-19T07:23:28.267Z,8.00
2019-05-19T07:25:47.530Z,8.50
2019-05-19T07:28:12.043Z,8.10
2019-05-19T07:30:36.598Z,9.67
2019-05-19T07:33:01.051Z,8.00
2019-05-19T07:35:25.527Z,8.30
2019-05-19T07:37:50.036Z,7.53
2019-05-19T07:40:14.831Z,8.23
2019-05-19T07:42:39.409Z,8.50
2019-05-19T07:45:04.534Z,8.53
2019-05-19T07:47:29.058Z,8.27
2019-05-19T07:49:53.521Z,8.07
2019-05-19T07:52:17.996Z,8.80
2019-05-19T07:54:42.481Z,8.83
2019-05-19T07:57:06.941Z,8.67
2019-05-19T07:59:31.463Z,9.00
2019-05-19T08:01:55.904Z,7.50
2019-05-19T08:04:20.375Z,8.20
2019-05-19T08:06:44.804Z,7.93
2019-05-19T08:09:09.315Z,8.60
2019-05-19T08:11:34.123Z,8.27
2019-05-19T08:13:58.660Z,9.83
2019-05-19T08:16:23.142Z,7.97
2019-05-19T08:18:47.654Z,9.50
2019-05-19T08:21:12.191Z,8.53
2019-05-19T08:23:36.647Z,9.40
2019-05-19T08:26:01.290Z,10.00
2019-05-19T08:28:25.818Z,9.30
2019-05-19T08:30:50.382Z,8.80
2019-05-19T08:33:14.825Z,8.17
2019-05-19T08:35:39.377Z,8.70
2019-05-19T08:38:03.886Z,9.27
2019-05-19T08:40:28.363Z,11.10
2019-05-19T08:42:52.809Z,8.77
2019-05-19T08:45:17.417Z,7.90
2019-05-19T08:47:41.874Z,10.33
2019-05-19T08:50:07.385Z,9.43
2019-05-19T08:52:31.885Z,8.87
2019-05-19T08:54:56.420Z,9.07
2019-05-19T08:57:20.902Z,10.43
2019-05-19T08:59:45.347Z,9.10
2019-05-19T09:02:09.814Z,8.90
2019-05-19T09:04:34.268Z,9.87
2019-05-19T09:06:58.751Z,9.67
2019-05-19T09:09:23.269Z,8.70
2019-05-19T09:11:48.069Z,10.67
2019-05-19T09:14:12.611Z,8.70
2019-05-19T09:16:37.133Z,12.00
2019-05-19T09:19:01.578Z,8.13
2019-05-19T09:21:26.165Z,9.00
2019-05-19T09:23:50.682Z,9.20
2019-05-19T09:26:15.155Z,8.40
2019-05-19T09:28:39.733Z,8.93
2019-05-19T09:31:04.317Z,11.03
2019-05-19T09:33:28.763Z,11.13
2019-05-19T09:35:53.207Z,10.47
2019-05-19T09:38:17.750Z,8.37
2019-05-19T09:40:42.184Z,9.50
2019-05-19T09:43:06.645Z,8.30
2019-05-19T09:45:31.245Z,8.70
2019-05-19T09:47:55.714Z,9.33
2019-05-19T09:50:20.605Z,9.60
2019-05-19T09:52:45.129Z,8.60
2019-05-19T09:55:09.942Z,8.53
2019-05-19T09:57:34.562Z,8.63
2019-05-19T09:59:59.110Z,9.10
2019-05-19T10:02:23.745Z,8.90
2019-05-19T10:04:48.177Z,10.30
2019-05-19T10:07:12.860Z,10.47
2019-05-19T10:09:47.764Z,8.50
2019-05-19T10:12:12.244Z,8.20
2019-05-19T10:14:36.805Z,7.80
2019-05-19T10:17:01.657Z,9.23
2019-05-19T10:19:26.337Z,10.77
2019-05-19T10:21:50.972Z,8.60
2019-05-19T10:24:15.479Z,7.80
2019-05-19T10:26:40.052Z,9.00
2019-05-19T10:29:04.592Z,8.93
2019-05-19T10:31:29.042Z,9.00
2019-05-19T10:33:53.539Z,8.63
2019-05-19T10:36:18.481Z,8.17
2019-05-19T10:38:43.047Z,8.07
2019-05-19T10:41:07.486Z,7.37
2019-05-19T10:43:32.033Z,9.00
2019-05-19T10:46:02.185Z,7.37
2019-05-19T10:48:26.974Z,8.83
2019-05-19T10:50:51.467Z,7.43
2019-05-19T10:53:15.941Z,8.93
2019-05-19T10:55:40.427Z,9.37
2019-05-19T10:58:04.963Z,7.43
2019-05-19T11:00:29.513Z,6.87
2019-05-19T11:02:53.977Z,6.93
2019-05-19T11:05:18.547Z,7.07
2019-05-19T11:07:43.187Z,6.63
2019-05-19T11:10:08.070Z,9.50
2019-05-19T11:12:32.587Z,6.90
2019-05-19T11:14:57.048Z,6.30
2019-05-19T11:17:21.553Z,6.73
2019-05-19T11:19:46.016Z,6.90
2019-05-19T11:22:10.453Z,6.40
2019-05-19T11:24:34.906Z,6.03
2019-05-19T11:26:59.416Z,6.60
2019-05-19T11:29:23.933Z,8.03
2019-05-19T11:31:48.370Z,6.80
2019-05-19T11:34:12.924Z,7.90
2019-05-19T11:36:37.524Z,6.50
2019-05-19T11:39:02.067Z,6.57
2019-05-19T11:41:26.502Z,6.67
2019-05-19T11:43:51.066Z,7.20
2019-05-19T11:46:15.514Z,6.60
2019-05-19T11:48:40.604Z,6.70
2019-05-19T11:51:05.046Z,6.87
2019-05-19T11:53:29.582Z,7.33
2019-05-19T11:56:05.810Z,6.73
2019-05-19T11:58:20.479Z,7.85
2019-05-19T12:00:45.017Z,6.78
2019-05-19T12:03:09.628Z,6.15
2019-05-19T12:05:34.453Z,6.55
2019-05-19T12:07:59.060Z,6.10
2019-05-19T12:10:23.659Z,6.97
2019-05-19T12:12:48.093Z,6.37
2019-05-19T12:15:12.902Z,6.67
2019-05-19T12:17:37.353Z,6.08
2019-05-19T12:20:01.916Z,6.77
2019-05-19T12:22:26.363Z,6.63
2019-05-19T12:24:50.886Z,7.25
2019-05-19T12:27:17.632Z,6.47
2019-05-19T12:29:42.172Z,6.90
2019-05-19T12:32:06.629Z,6.40
2019-05-19T12:34:31.149Z,7.30
2019-05-19T12:36:55.592Z,7.22
2019-05-19T12:39:20.082Z,5.97
2019-05-19T12:41:44.599Z,6.00
2019-05-19T12:44:09.104Z,5.95
2019-05-19T12:46:33.570Z,5.90
2019-05-19T12:48:58.012Z,5.70
2019-05-19T12:51:22.637Z,5.43
2019-05-19T12:53:47.272Z,4.95
2019-05-19T12:56:11.840Z,6.70
2019-05-19T12:58:36.268Z,5.15
2019-05-19T13:01:00.754Z,5.08
2019-05-19T13:03:25.199Z,5.83
2019-05-19T13:05:49.750Z,6.10
2019-05-19T13:08:14.173Z,5.97
2019-05-19T13:10:38.719Z,5.55
2019-05-19T13:13:03.161Z,5.00
2019-05-19T13:15:27.822Z,6.08
2019-05-19T13:17:52.592Z,5.45
2019-05-19T13:20:17.270Z,4.50
2019-05-19T13:22:41.727Z,4.95
2019-05-19T13:25:06.825Z,4.35
2019-05-19T13:27:31.347Z,4.35
2019-05-19T13:29:55.901Z,4.47
2019-05-19T13:32:20.502Z,4.30
2019-05-19T13:34:44.971Z,5.62
2019-05-19T13:37:09.450Z,4.50
2019-05-19T13:39:33.948Z,5.72
2019-05-19T13:41:58.421Z,4.00
2019-05-19T13:44:22.858Z,4.12
2019-05-19T13:46:47.347Z,4.80
2019-05-19T13:49:11.811Z,5.80
2019-05-19T13:51:36.432Z,4.65
2019-05-19T13:54:00.918Z,4.67
2019-05-19T13:56:25.473Z,4.83
2019-05-19T13:58:49.960Z,4.58
2019-05-19T14:01:27.675Z,4.83
2019-05-19T14:03:40.546Z,6.22
2019-05-19T14:06:05.065Z,4.55
2019-05-19T14:08:29.597Z,4.95
2019-05-19T14:10:54.059Z,4.70
2019-05-19T14:13:18.498Z,5.00
2019-05-19T14:15:43.103Z,4.78
2019-05-19T14:18:07.540Z,5.10
2019-05-19T14:20:32.096Z,5.47
2019-05-19T14:22:56.651Z,4.45
2019-05-19T14:25:21.136Z,3.90
2019-05-19T14:27:45.715Z,4.65
2019-05-19T14:30:10.888Z,4.78
2019-05-19T14:32:35.358Z,4.95
2019-05-19T14:34:59.869Z,4.75
2019-05-19T14:37:24.366Z,4.60
2019-05-19T14:39:48.799Z,4.47
2019-05-19T14:42:14.907Z,5.08
2019-05-19T14:44:39.335Z,4.75
2019-05-19T14:47:03.944Z,4.58
2019-05-19T14:49:28.404Z,6.45
2019-05-19T14:51:52.941Z,5.10
2019-05-19T14:54:17.578Z,4.28
2019-05-19T14:56:42.162Z,5.75
2019-05-19T14:59:06.607Z,4.12
2019-05-19T15:01:31.180Z,4.53
2019-05-19T15:03:55.681Z,4.20
2019-05-19T15:06:20.224Z,4.37
2019-05-19T15:08:44.692Z,3.98
2019-05-19T15:11:09.174Z,6.10
2019-05-19T15:13:33.678Z,4.20
2019-05-19T15:15:58.216Z,4.45
2019-05-19T15:18:22.730Z,4.75
2019-05-19T15:20:47.180Z,4.25
2019-05-19T15:23:11.646Z,4.95
2019-05-19T15:25:36.081Z,4.67
2019-05-19T15:28:04.858Z,4.83
2019-05-19T15:30:26.850Z,4.45
2019-05-19T15:32:51.371Z,5.00
2019-05-19T15:35:16.007Z,4.78
2019-05-19T15:37:40.529Z,4.83
2019-05-19T15:40:08.385Z,4.87
2019-05-19T15:42:32.930Z,4.58
2019-05-19T15:44:57.404Z,5.10
2019-05-19T15:47:21.896Z,4.30
2019-05-19T15:49:46.418Z,4.78
2019-05-19T15:52:11.035Z,4.95
2019-05-19T15:54:35.487Z,4.80
2019-05-19T15:56:59.960Z,5.20
2019-05-19T15:59:24.515Z,4.45
2019-05-19T16:01:49.168Z,5.43
2019-05-19T16:04:13.749Z,4.20
2019-05-19T16:06:39.126Z,4.90
2019-05-19T16:09:05.577Z,4.93
2019-05-19T16:11:29.996Z,4.87
2019-05-19T16:13:54.652Z,4.83
2019-05-19T16:16:19.440Z,6.58
2019-05-19T16:18:43.892Z,4.25
2019-05-19T16:21:08.320Z,6.92
2019-05-19T16:23:32.923Z,5.65
2019-05-19T16:25:57.364Z,5.37
2019-05-19T16:28:30.303Z,5.45
2019-05-19T16:30:48.126Z,4.60
2019-05-19T16:33:12.959Z,4.83
2019-05-19T16:35:37.397Z,4.80
2019-05-19T16:38:01.888Z,5.30
2019-05-19T16:40:26.396Z,4.83
2019-05-19T16:42:51.067Z,4.87
2019-05-19T16:45:16.161Z,6.00
2019-05-19T16:47:40.666Z,4.83
2019-05-19T16:50:07.200Z,4.85
2019-05-19T16:52:31.679Z,4.65
2019-05-19T16:55:13.796Z,4.60
2019-05-19T16:57:38.299Z,4.58
2019-05-19T17:00:02.890Z,6.58
2019-05-19T17:02:27.342Z,4.83
2019-05-19T17:04:51.838Z,4.60
2019-05-19T17:07:16.314Z,5.17
2019-05-19T17:09:40.760Z,5.33
2019-05-19T17:12:06.901Z,5.10
2019-05-19T17:14:31.579Z,4.47
2019-05-19T17:16:56.031Z,5.85
2019-05-19T17:19:20.551Z,4.35
2019-05-19T17:21:44.985Z,5.87
2019-05-19T17:24:09.523Z,4.55
2019-05-19T17:26:34.048Z,4.27
2019-05-19T17:29:00.949Z,4.25
2019-05-19T17:31:25.721Z,4.30
2019-05-19T17:33:50.327Z,5.10
2019-05-19T17:36:14.786Z,4.90
2019-05-19T17:38:39.384Z,4.67
2019-05-19T17:41:03.857Z,4.03
2019-05-19T17:43:28.309Z,4.70
2019-05-19T17:45:52.868Z,4.93
2019-05-19T17:48:26.135Z,4.70
2019-05-19T17:50:43.665Z,4.67
2019-05-19T17:53:08.197Z,4.30
2019-05-19T17:55:34.672Z,4.53
2019-05-19T17:58:01.402Z,4.40
2019-05-19T18:00:40.645Z,4.53
2019-05-19T18:03:06.310Z,5.10
2019-05-19T18:05:30.900Z,7.90
2019-05-19T18:07:55.324Z,6.80
2019-05-19T18:10:19.853Z,5.17
2019-05-19T18:12:44.359Z,5.13
2019-05-19T18:15:09.065Z,5.00
2019-05-19T18:17:33.510Z,7.30
2019-05-19T18:19:57.996Z,6.00
2019-05-19T18:22:22.537Z,5.57
2019-05-19T18:24:47.012Z,5.50
2019-05-19T18:27:11.561Z,5.37
2019-05-19T18:29:36.107Z,5.10
2019-05-19T18:32:00.550Z,6.27
2019-05-19T18:34:25.004Z,6.83
2019-05-19T18:36:49.463Z,6.07
2019-05-19T18:39:13.970Z,7.67
2019-05-19T18:41:38.559Z,6.37
2019-05-19T18:44:03.081Z,5.73
2019-05-19T18:46:27.690Z,5.20
2019-05-19T18:48:52.271Z,6.50
2019-05-19T18:51:16.746Z,6.27
2019-05-19T18:53:41.364Z,5.37
2019-05-19T18:56:05.836Z,7.07
2019-05-19T18:58:30.548Z,5.57
2019-05-19T19:00:55.221Z,6.10
2019-05-19T19:03:19.818Z,5.40
2019-05-19T19:05:44.439Z,5.87
2019-05-19T19:08:08.949Z,6.63
2019-05-19T19:10:33.567Z,6.30
2019-05-19T19:12:58.182Z,6.03
2019-05-19T19:15:22.798Z,6.53
2019-05-19T19:17:47.337Z,10.07
2019-05-19T19:20:12.477Z,6.93
2019-05-19T19:22:37.034Z,5.80
2019-05-19T19:25:03.015Z,7.30
2019-05-19T19:27:27.488Z,5.40
2019-05-19T19:30:02.872Z,5.70
2019-05-19T19:32:18.079Z,5.83
2019-05-19T19:34:42.531Z,7.80
2019-05-19T19:37:07.189Z,5.90
2019-05-19T19:39:31.783Z,5.67
2019-05-19T19:41:56.276Z,6.53
2019-05-19T19:44:20.795Z,5.83
2019-05-19T19:46:45.262Z,6.03
2019-05-19T19:49:09.782Z,6.17
2019-05-19T19:51:34.326Z,5.20
2019-05-19T19:53:58.774Z,5.47
2019-05-19T19:56:23.423Z,5.97
2019-05-19T19:58:48.651Z,5.07
2019-05-19T20:01:13.224Z,6.17
2019-05-19T20:03:40.307Z,5.50
2019-05-19T20:06:03.971Z,5.67
2019-05-19T20:08:28.476Z,6.23
2019-05-19T20:10:53.027Z,5.80
2019-05-19T20:13:17.483Z,5.63
2019-05-19T20:15:41.935Z,5.60
2019-05-19T20:18:06.647Z,6.47
2019-05-19T20:20:31.343Z,5.83
2019-05-19T20:22:55.797Z,5.50
2019-05-19T20:25:20.227Z,5.77
2019-05-19T20:27:44.770Z,5.60
2019-05-19T20:30:09.448Z,6.17
2019-05-19T20:32:33.995Z,6.40
2019-05-19T20:34:58.516Z,6.40
2019-05-19T20:37:23.088Z,6.60
2019-05-19T20:39:47.525Z,5.80
2019-05-19T20:42:12.020Z,6.30
2019-05-19T20:44:36.467Z,6.00
2019-05-19T20:47:00.983Z,6.07
2019-05-19T20:49:25.581Z,6.53
2019-05-19T20:51:50.017Z,6.63
2019-05-19T20:54:14.606Z,5.87
2019-05-19T20:56:39.142Z,5.90
2019-05-19T20:59:03.759Z,5.83
2019-05-19T21:01:28.202Z,6.43
2019-05-19T21:03:52.745Z,6.50
2019-05-19T21:06:17.183Z,6.73
2019-05-19T21:08:41.757Z,8.07
2019-05-19T21:11:06.191Z,7.67
2019-05-19T21:13:30.719Z,6.53
2019-05-19T21:15:55.148Z,6.93
2019-05-19T21:18:19.611Z,8.00
2019-05-19T21:20:44.215Z,6.30
2019-05-19T21:23:08.691Z,6.50
2019-05-19T21:25:33.288Z,7.37
2019-05-19T21:27:57.760Z,6.43
2019-05-19T21:30:22.220Z,6.47
2019-05-19T21:32:46.699Z,7.33
2019-05-19T21:35:11.319Z,6.23
2019-05-19T21:37:35.868Z,6.67
2019-05-19T21:40:00.391Z,7.47
2019-05-19T21:42:25.210Z,7.63
2019-05-19T21:44:49.645Z,6.80
2019-05-19T21:47:14.265Z,7.00
2019-05-19T21:49:38.755Z,7.10
2019-05-19T21:52:03.364Z,7.77
2019-05-19T21:54:28.653Z,7.53
2019-05-19T21:56:53.442Z,7.93
2019-05-19T21:59:17.984Z,8.37
2019-05-19T22:01:43.100Z,10.60
2019-05-19T22:04:08.088Z,9.33
2019-05-19T22:06:34.340Z,8.30
2019-05-19T22:08:58.796Z,8.43
2019-05-19T22:11:23.529Z,9.60
2019-05-19T22:13:48.333Z,8.73
2019-05-19T22:16:13.961Z,10.07
2019-05-19T22:18:38.592Z,9.37
2019-05-19T22:21:04.506Z,9.40
2019-05-19T22:23:29.359Z,9.90
2019-05-19T22:25:54.262Z,8.97
2019-05-19T22:28:18.804Z,10.13
2019-05-19T22:30:43.334Z,9.63
2019-05-19T22:33:07.913Z,9.33
2019-05-19T22:35:32.549Z,9.13
2019-05-19T22:37:57.010Z,9.50
2019-05-19T22:40:21.590Z,10.10
2019-05-19T22:42:48.957Z,9.87
2019-05-19T22:45:13.684Z,10.33
2019-05-19T22:47:38.143Z,10.43
2019-05-19T22:50:02.774Z,10.20
2019-05-19T22:52:27.285Z,10.30
2019-05-19T22:54:51.820Z,10.13
2019-05-19T22:57:18.022Z,10.63
2019-05-19T22:59:42.528Z,10.97
2019-05-19T23:02:09.249Z,10.73
2019-05-19T23:04:33.317Z,11.20
2019-05-19T23:06:57.846Z,11.10
2019-05-19T23:09:22.313Z,11.03
2019-05-19T23:11:46.786Z,11.10
2019-05-19T23:14:11.270Z,12.33
2019-05-19T23:16:35.713Z,11.33
2019-05-19T23:19:00.273Z,11.07
2019-05-19T23:21:24.874Z,13.03
2019-05-19T23:23:49.360Z,11.03
2019-05-19T23:26:13.910Z,11.53
2019-05-19T23:28:38.359Z,11.53
2019-05-19T23:31:02.913Z,11.30
2019-05-19T23:33:27.384Z,11.17
2019-05-19T23:35:51.881Z,11.80
2019-05-19T23:38:16.394Z,10.77
2019-05-19T23:40:40.938Z,11.67
2019-05-19T23:43:05.667Z,12.10
2019-05-19T23:45:30.198Z,11.97
2019-05-19T23:47:54.729Z,11.70
2019-05-19T23:50:19.317Z,11.50
2019-05-19T23:52:43.734Z,11.27
2019-05-19T23:55:08.871Z,10.87
2019-05-19T23:57:33.541Z,11.87
2019-05-19T23:59:57.981Z,12.13
